sensor_id;sensor_type;location;lat;lon;timestamp;P1;durP1;ratioP1;P2;durP2;ratioP2
705;SDS011;21234;48.690;9.016;2024-02-26T00:00:02;2.13;;;1.50;;
705;SDS011;21234;48.690;9.016;2024-02-26T00:02:34;2.07;;;1.87;;
705;SDS011;21234;48.690;9.016;2024-02-26T00:05:03;4.97;;;2.80;;
705;SDS011;21234;48.690;9.016;2024-02-26T00:07:32;2.70;;;2.03;;
705;SDS011;21234;48.690;9.016;2024-02-26T00:09:59;3.63;;;2.50;;
705;SDS011;21234;48.690;9.016;2024-02-26T00:12:26;2.70;;;2.17;;
705;SDS011;21234;48.690;9.016;2024-02-26T00:14:53;5.57;;;2.30;;
705;SDS011;21234;48.690;9.016;2024-02-26T00:17:19;3.33;;;1.60;;
705;SDS011;21234;48.690;9.016;2024-02-26T00:19:46;2.50;;;1.77;;
705;SDS011;21234;48.690;9.016;2024-02-26T00:22:13;1.60;;;1.07;;
705;SDS011;21234;48.690;9.016;2024-02-26T00:24:41;4.90;;;1.50;;
705;SDS011;21234;48.690;9.016;2024-02-26T00:27:08;1.70;;;1.37;;
705;SDS011;21234;48.690;9.016;2024-02-26T00:29:34;2.13;;;1.50;;
705;SDS011;21234;48.690;9.016;2024-02-26T00:32:01;1.90;;;1.43;;
705;SDS011;21234;48.690;9.016;2024-02-26T00:34:28;8.70;;;1.90;;
705;SDS011;21234;48.690;9.016;2024-02-26T00:36:54;2.10;;;1.77;;
705;SDS011;21234;48.690;9.016;2024-02-26T00:39:21;1.47;;;1.03;;
705;SDS011;21234;48.690;9.016;2024-02-26T00:41:49;1.43;;;1.10;;
705;SDS011;21234;48.690;9.016;2024-02-26T00:44:17;1.40;;;1.00;;
705;SDS011;21234;48.690;9.016;2024-02-26T00:46:44;1.67;;;1.17;;
705;SDS011;21234;48.690;9.016;2024-02-26T00:49:10;2.23;;;1.43;;
705;SDS011;21234;48.690;9.016;2024-02-26T00:51:37;2.23;;;1.47;;
705;SDS011;21234;48.690;9.016;2024-02-26T00:54:04;2.50;;;1.50;;
705;SDS011;21234;48.690;9.016;2024-02-26T00:56:31;1.23;;;1.00;;
705;SDS011;21234;48.690;9.016;2024-02-26T00:58:59;1.23;;;0.87;;
705;SDS011;21234;48.690;9.016;2024-02-26T01:01:25;1.23;;;1.00;;
705;SDS011;21234;48.690;9.016;2024-02-26T01:03:52;2.13;;;1.40;;
705;SDS011;21234;48.690;9.016;2024-02-26T01:06:19;0.93;;;0.63;;
705;SDS011;21234;48.690;9.016;2024-02-26T01:08:47;1.07;;;0.83;;
705;SDS011;21234;48.690;9.016;2024-02-26T01:11:14;1.50;;;1.10;;
705;SDS011;21234;48.690;9.016;2024-02-26T01:13:40;1.03;;;0.63;;
705;SDS011;21234;48.690;9.016;2024-02-26T01:16:08;1.20;;;1.10;;
705;SDS011;21234;48.690;9.016;2024-02-26T01:18:35;1.10;;;0.70;;
705;SDS011;21234;48.690;9.016;2024-02-26T01:21:02;1.33;;;1.00;;
705;SDS011;21234;48.690;9.016;2024-02-26T01:23:32;1.47;;;1.07;;
705;SDS011;21234;48.690;9.016;2024-02-26T01:25:58;1.60;;;1.10;;
705;SDS011;21234;48.690;9.016;2024-02-26T01:28:25;1.23;;;1.03;;
705;SDS011;21234;48.690;9.016;2024-02-26T01:30:52;1.20;;;0.80;;
705;SDS011;21234;48.690;9.016;2024-02-26T01:33:20;2.20;;;1.27;;
705;SDS011;21234;48.690;9.016;2024-02-26T01:35:46;1.00;;;0.93;;
705;SDS011;21234;48.690;9.016;2024-02-26T01:38:13;2.60;;;1.17;;
705;SDS011;21234;48.690;9.016;2024-02-26T01:40:40;2.17;;;1.97;;
705;SDS011;21234;48.690;9.016;2024-02-26T01:43:07;1.03;;;0.93;;
705;SDS011;21234;48.690;9.016;2024-02-26T01:45:33;2.10;;;1.13;;
705;SDS011;21234;48.690;9.016;2024-02-26T01:48:00;0.70;;;0.67;;
705;SDS011;21234;48.690;9.016;2024-02-26T01:50:29;1.03;;;0.90;;
705;SDS011;21234;48.690;9.016;2024-02-26T01:52:56;1.57;;;1.30;;
705;SDS011;21234;48.690;9.016;2024-02-26T01:55:23;3.27;;;1.93;;
705;SDS011;21234;48.690;9.016;2024-02-26T01:57:52;4.10;;;1.50;;
705;SDS011;21234;48.690;9.016;2024-02-26T02:00:20;1.70;;;1.10;;
705;SDS011;21234;48.690;9.016;2024-02-26T02:02:48;1.33;;;1.20;;
705;SDS011;21234;48.690;9.016;2024-02-26T02:05:15;0.80;;;0.60;;
705;SDS011;21234;48.690;9.016;2024-02-26T02:07:44;0.70;;;0.60;;
705;SDS011;21234;48.690;9.016;2024-02-26T02:10:11;0.73;;;0.73;;
705;SDS011;21234;48.690;9.016;2024-02-26T02:12:38;1.53;;;1.17;;
705;SDS011;21234;48.690;9.016;2024-02-26T02:15:06;1.07;;;0.70;;
705;SDS011;21234;48.690;9.016;2024-02-26T02:17:33;0.60;;;0.60;;
705;SDS011;21234;48.690;9.016;2024-02-26T02:20:00;0.50;;;0.30;;
705;SDS011;21234;48.690;9.016;2024-02-26T02:22:30;1.00;;;0.50;;
705;SDS011;21234;48.690;9.016;2024-02-26T02:24:57;0.90;;;0.40;;
705;SDS011;21234;48.690;9.016;2024-02-26T02:27:24;0.63;;;0.30;;
705;SDS011;21234;48.690;9.016;2024-02-26T02:29:52;0.80;;;0.40;;
705;SDS011;21234;48.690;9.016;2024-02-26T02:32:19;0.70;;;0.50;;
705;SDS011;21234;48.690;9.016;2024-02-26T02:34:47;0.67;;;0.40;;
705;SDS011;21234;48.690;9.016;2024-02-26T02:37:14;0.60;;;0.50;;
705;SDS011;21234;48.690;9.016;2024-02-26T02:39:42;0.50;;;0.47;;
705;SDS011;21234;48.690;9.016;2024-02-26T02:42:09;1.00;;;0.50;;
705;SDS011;21234;48.690;9.016;2024-02-26T02:44:37;0.70;;;0.53;;
705;SDS011;21234;48.690;9.016;2024-02-26T02:47:03;0.80;;;0.57;;
705;SDS011;21234;48.690;9.016;2024-02-26T02:49:30;1.53;;;0.60;;
705;SDS011;21234;48.690;9.016;2024-02-26T02:51:57;1.13;;;0.50;;
705;SDS011;21234;48.690;9.016;2024-02-26T02:54:24;0.70;;;0.30;;
705;SDS011;21234;48.690;9.016;2024-02-26T02:56:52;1.47;;;0.40;;
705;SDS011;21234;48.690;9.016;2024-02-26T02:59:18;1.57;;;0.80;;
705;SDS011;21234;48.690;9.016;2024-02-26T03:01:45;1.57;;;0.90;;
705;SDS011;21234;48.690;9.016;2024-02-26T03:04:12;0.57;;;0.40;;
705;SDS011;21234;48.690;9.016;2024-02-26T03:06:38;0.57;;;0.40;;
705;SDS011;21234;48.690;9.016;2024-02-26T03:09:05;0.50;;;0.40;;
705;SDS011;21234;48.690;9.016;2024-02-26T03:11:32;0.60;;;0.30;;
705;SDS011;21234;48.690;9.016;2024-02-26T03:14:00;0.50;;;0.30;;
705;SDS011;21234;48.690;9.016;2024-02-26T03:16:27;0.73;;;0.50;;
705;SDS011;21234;48.690;9.016;2024-02-26T03:18:53;0.50;;;0.33;;
705;SDS011;21234;48.690;9.016;2024-02-26T03:21:20;0.50;;;0.30;;
705;SDS011;21234;48.690;9.016;2024-02-26T03:23:47;1.07;;;0.40;;
705;SDS011;21234;48.690;9.016;2024-02-26T03:26:14;0.73;;;0.40;;
705;SDS011;21234;48.690;9.016;2024-02-26T03:28:41;0.60;;;0.37;;
705;SDS011;21234;48.690;9.016;2024-02-26T03:31:09;0.60;;;0.47;;
705;SDS011;21234;48.690;9.016;2024-02-26T03:33:37;0.50;;;0.30;;
705;SDS011;21234;48.690;9.016;2024-02-26T03:36:04;2.07;;;0.57;;
705;SDS011;21234;48.690;9.016;2024-02-26T03:38:32;0.50;;;0.40;;
705;SDS011;21234;48.690;9.016;2024-02-26T03:40:59;0.40;;;0.37;;
705;SDS011;21234;48.690;9.016;2024-02-26T03:43:25;0.57;;;0.37;;
705;SDS011;21234;48.690;9.016;2024-02-26T03:45:52;1.60;;;0.50;;
705;SDS011;21234;48.690;9.016;2024-02-26T03:48:20;0.60;;;0.40;;
705;SDS011;21234;48.690;9.016;2024-02-26T03:50:47;0.90;;;0.77;;
705;SDS011;21234;48.690;9.016;2024-02-26T03:53:13;1.47;;;0.63;;
705;SDS011;21234;48.690;9.016;2024-02-26T03:55:40;0.60;;;0.40;;
705;SDS011;21234;48.690;9.016;2024-02-26T03:58:07;0.50;;;0.40;;
705;SDS011;21234;48.690;9.016;2024-02-26T04:00:34;1.27;;;0.33;;
705;SDS011;21234;48.690;9.016;2024-02-26T04:03:00;0.80;;;0.50;;
705;SDS011;21234;48.690;9.016;2024-02-26T04:05:28;1.30;;;0.50;;
705;SDS011;21234;48.690;9.016;2024-02-26T04:07:55;0.70;;;0.47;;
705;SDS011;21234;48.690;9.016;2024-02-26T04:10:22;0.77;;;0.60;;
705;SDS011;21234;48.690;9.016;2024-02-26T04:12:49;1.10;;;0.60;;
705;SDS011;21234;48.690;9.016;2024-02-26T04:15:15;1.00;;;0.53;;
705;SDS011;21234;48.690;9.016;2024-02-26T04:17:42;0.70;;;0.60;;
705;SDS011;21234;48.690;9.016;2024-02-26T04:20:13;1.10;;;0.80;;
705;SDS011;21234;48.690;9.016;2024-02-26T04:22:42;1.00;;;0.80;;
705;SDS011;21234;48.690;9.016;2024-02-26T04:25:09;3.43;;;1.77;;
705;SDS011;21234;48.690;9.016;2024-02-26T04:27:35;2.33;;;1.37;;
705;SDS011;21234;48.690;9.016;2024-02-26T04:30:03;1.03;;;0.83;;
705;SDS011;21234;48.690;9.016;2024-02-26T04:32:31;1.00;;;0.83;;
705;SDS011;21234;48.690;9.016;2024-02-26T04:34:58;1.10;;;1.00;;
705;SDS011;21234;48.690;9.016;2024-02-26T04:37:24;0.67;;;0.67;;
705;SDS011;21234;48.690;9.016;2024-02-26T04:39:57;1.40;;;0.57;;
705;SDS011;21234;48.690;9.016;2024-02-26T04:42:24;0.93;;;0.83;;
705;SDS011;21234;48.690;9.016;2024-02-26T04:44:50;0.60;;;0.50;;
705;SDS011;21234;48.690;9.016;2024-02-26T04:47:17;0.57;;;0.40;;
705;SDS011;21234;48.690;9.016;2024-02-26T04:49:44;0.70;;;0.63;;
705;SDS011;21234;48.690;9.016;2024-02-26T04:52:11;0.90;;;0.50;;
705;SDS011;21234;48.690;9.016;2024-02-26T04:54:38;0.73;;;0.63;;
705;SDS011;21234;48.690;9.016;2024-02-26T04:57:06;0.80;;;0.80;;
705;SDS011;21234;48.690;9.016;2024-02-26T04:59:33;1.17;;;0.70;;
705;SDS011;21234;48.690;9.016;2024-02-26T05:01:59;1.10;;;0.50;;
705;SDS011;21234;48.690;9.016;2024-02-26T05:04:26;0.80;;;0.77;;
705;SDS011;21234;48.690;9.016;2024-02-26T05:06:52;1.23;;;1.03;;
705;SDS011;21234;48.690;9.016;2024-02-26T05:09:19;0.83;;;0.70;;
705;SDS011;21234;48.690;9.016;2024-02-26T05:11:46;1.80;;;0.83;;
705;SDS011;21234;48.690;9.016;2024-02-26T05:14:14;0.97;;;0.80;;
705;SDS011;21234;48.690;9.016;2024-02-26T05:16:41;1.27;;;0.83;;
705;SDS011;21234;48.690;9.016;2024-02-26T05:19:07;1.37;;;0.83;;
705;SDS011;21234;48.690;9.016;2024-02-26T05:21:34;1.90;;;0.90;;
705;SDS011;21234;48.690;9.016;2024-02-26T05:24:01;2.57;;;1.00;;
705;SDS011;21234;48.690;9.016;2024-02-26T05:26:28;0.70;;;0.60;;
705;SDS011;21234;48.690;9.016;2024-02-26T05:28:54;1.33;;;0.87;;
705;SDS011;21234;48.690;9.016;2024-02-26T05:31:26;1.10;;;0.73;;
705;SDS011;21234;48.690;9.016;2024-02-26T05:33:53;1.50;;;1.10;;
705;SDS011;21234;48.690;9.016;2024-02-26T05:36:20;2.20;;;1.00;;
705;SDS011;21234;48.690;9.016;2024-02-26T05:38:47;2.07;;;1.10;;
705;SDS011;21234;48.690;9.016;2024-02-26T05:41:15;1.00;;;0.80;;
705;SDS011;21234;48.690;9.016;2024-02-26T05:43:41;1.10;;;1.00;;
705;SDS011;21234;48.690;9.016;2024-02-26T05:46:08;1.83;;;1.17;;
705;SDS011;21234;48.690;9.016;2024-02-26T05:48:36;1.20;;;1.10;;
705;SDS011;21234;48.690;9.016;2024-02-26T05:51:04;1.33;;;1.20;;
705;SDS011;21234;48.690;9.016;2024-02-26T05:53:31;1.07;;;0.90;;
705;SDS011;21234;48.690;9.016;2024-02-26T05:55:57;1.20;;;1.00;;
705;SDS011;21234;48.690;9.016;2024-02-26T05:58:24;3.00;;;2.23;;
705;SDS011;21234;48.690;9.016;2024-02-26T06:00:51;10.17;;;4.93;;
705;SDS011;21234;48.690;9.016;2024-02-26T06:03:17;8.87;;;5.53;;
705;SDS011;21234;48.690;9.016;2024-02-26T06:05:45;8.20;;;4.97;;
705;SDS011;21234;48.690;9.016;2024-02-26T06:08:12;4.17;;;3.10;;
705;SDS011;21234;48.690;9.016;2024-02-26T06:10:39;5.30;;;3.33;;
705;SDS011;21234;48.690;9.016;2024-02-26T06:13:05;4.70;;;2.50;;
705;SDS011;21234;48.690;9.016;2024-02-26T06:15:32;4.80;;;2.13;;
705;SDS011;21234;48.690;9.016;2024-02-26T06:17:59;3.43;;;1.93;;
705;SDS011;21234;48.690;9.016;2024-02-26T06:20:25;1.93;;;1.50;;
705;SDS011;21234;48.690;9.016;2024-02-26T06:22:53;1.40;;;1.00;;
705;SDS011;21234;48.690;9.016;2024-02-26T06:25:20;1.47;;;1.37;;
705;SDS011;21234;48.690;9.016;2024-02-26T06:27:47;1.60;;;1.17;;
705;SDS011;21234;48.690;9.016;2024-02-26T06:30:13;4.60;;;3.33;;
705;SDS011;21234;48.690;9.016;2024-02-26T06:32:40;2.33;;;2.13;;
705;SDS011;21234;48.690;9.016;2024-02-26T06:35:07;3.40;;;2.57;;
705;SDS011;21234;48.690;9.016;2024-02-26T06:37:36;2.43;;;2.00;;
705;SDS011;21234;48.690;9.016;2024-02-26T06:40:05;3.17;;;2.83;;
705;SDS011;21234;48.690;9.016;2024-02-26T06:42:32;3.13;;;2.47;;
705;SDS011;21234;48.690;9.016;2024-02-26T06:44:59;2.60;;;2.33;;
705;SDS011;21234;48.690;9.016;2024-02-26T06:47:26;3.93;;;2.43;;
705;SDS011;21234;48.690;9.016;2024-02-26T06:49:53;5.27;;;3.90;;
705;SDS011;21234;48.690;9.016;2024-02-26T06:52:23;3.20;;;2.80;;
705;SDS011;21234;48.690;9.016;2024-02-26T06:54:50;3.00;;;2.70;;
705;SDS011;21234;48.690;9.016;2024-02-26T06:57:19;4.90;;;4.47;;
705;SDS011;21234;48.690;9.016;2024-02-26T06:59:46;2.50;;;2.17;;
705;SDS011;21234;48.690;9.016;2024-02-26T07:02:12;2.93;;;2.40;;
705;SDS011;21234;48.690;9.016;2024-02-26T07:04:39;4.30;;;3.40;;
705;SDS011;21234;48.690;9.016;2024-02-26T07:07:07;3.27;;;2.97;;
705;SDS011;21234;48.690;9.016;2024-02-26T07:09:33;3.43;;;2.50;;
705;SDS011;21234;48.690;9.016;2024-02-26T07:12:00;3.53;;;2.23;;
705;SDS011;21234;48.690;9.016;2024-02-26T07:14:28;2.00;;;1.80;;
705;SDS011;21234;48.690;9.016;2024-02-26T07:16:55;2.63;;;1.17;;
705;SDS011;21234;48.690;9.016;2024-02-26T07:19:23;3.97;;;0.87;;
705;SDS011;21234;48.690;9.016;2024-02-26T07:21:49;1.17;;;1.07;;
705;SDS011;21234;48.690;9.016;2024-02-26T07:24:16;1.10;;;1.00;;
705;SDS011;21234;48.690;9.016;2024-02-26T07:26:43;1.40;;;1.03;;
705;SDS011;21234;48.690;9.016;2024-02-26T07:29:09;3.90;;;1.00;;
705;SDS011;21234;48.690;9.016;2024-02-26T07:31:37;2.90;;;1.20;;
705;SDS011;21234;48.690;9.016;2024-02-26T07:34:04;3.57;;;1.70;;
705;SDS011;21234;48.690;9.016;2024-02-26T07:36:31;3.00;;;2.30;;
705;SDS011;21234;48.690;9.016;2024-02-26T07:38:57;3.20;;;2.50;;
705;SDS011;21234;48.690;9.016;2024-02-26T07:41:24;3.83;;;2.97;;
705;SDS011;21234;48.690;9.016;2024-02-26T07:43:51;4.37;;;3.43;;
705;SDS011;21234;48.690;9.016;2024-02-26T07:46:17;6.33;;;3.00;;
705;SDS011;21234;48.690;9.016;2024-02-26T07:48:45;2.30;;;1.40;;
705;SDS011;21234;48.690;9.016;2024-02-26T07:51:12;1.73;;;1.30;;
705;SDS011;21234;48.690;9.016;2024-02-26T07:53:39;2.87;;;1.27;;
705;SDS011;21234;48.690;9.016;2024-02-26T07:56:06;1.93;;;1.07;;
705;SDS011;21234;48.690;9.016;2024-02-26T07:58:33;1.23;;;0.70;;
705;SDS011;21234;48.690;9.016;2024-02-26T08:01:00;1.50;;;0.90;;
705;SDS011;21234;48.690;9.016;2024-02-26T08:03:26;1.37;;;1.00;;
705;SDS011;21234;48.690;9.016;2024-02-26T08:05:55;1.80;;;0.83;;
705;SDS011;21234;48.690;9.016;2024-02-26T08:08:21;2.67;;;1.00;;
705;SDS011;21234;48.690;9.016;2024-02-26T08:10:48;1.80;;;0.90;;
705;SDS011;21234;48.690;9.016;2024-02-26T08:13:14;1.03;;;0.63;;
705;SDS011;21234;48.690;9.016;2024-02-26T08:15:41;1.60;;;0.90;;
705;SDS011;21234;48.690;9.016;2024-02-26T08:18:08;0.90;;;0.70;;
705;SDS011;21234;48.690;9.016;2024-02-26T08:20:34;0.90;;;0.50;;
705;SDS011;21234;48.690;9.016;2024-02-26T08:23:02;1.23;;;0.67;;
705;SDS011;21234;48.690;9.016;2024-02-26T08:25:29;1.00;;;0.57;;
705;SDS011;21234;48.690;9.016;2024-02-26T08:27:56;1.37;;;0.80;;
705;SDS011;21234;48.690;9.016;2024-02-26T08:30:22;0.90;;;0.70;;
705;SDS011;21234;48.690;9.016;2024-02-26T08:32:49;0.80;;;0.80;;
705;SDS011;21234;48.690;9.016;2024-02-26T08:35:16;0.77;;;0.77;;
705;SDS011;21234;48.690;9.016;2024-02-26T08:37:43;1.23;;;1.00;;
705;SDS011;21234;48.690;9.016;2024-02-26T08:40:12;0.80;;;0.80;;
705;SDS011;21234;48.690;9.016;2024-02-26T08:42:39;1.00;;;0.70;;
705;SDS011;21234;48.690;9.016;2024-02-26T08:45:06;1.70;;;1.40;;
705;SDS011;21234;48.690;9.016;2024-02-26T08:47:34;1.30;;;1.00;;
705;SDS011;21234;48.690;9.016;2024-02-26T08:50:00;1.27;;;0.90;;
705;SDS011;21234;48.690;9.016;2024-02-26T08:52:27;1.67;;;0.80;;
705;SDS011;21234;48.690;9.016;2024-02-26T08:54:54;1.40;;;0.77;;
705;SDS011;21234;48.690;9.016;2024-02-26T08:57:22;1.73;;;0.90;;
705;SDS011;21234;48.690;9.016;2024-02-26T08:59:48;1.00;;;0.70;;
705;SDS011;21234;48.690;9.016;2024-02-26T09:02:15;0.83;;;0.60;;
705;SDS011;21234;48.690;9.016;2024-02-26T09:04:42;1.27;;;0.87;;
705;SDS011;21234;48.690;9.016;2024-02-26T09:07:09;1.10;;;0.97;;
705;SDS011;21234;48.690;9.016;2024-02-26T09:09:35;0.80;;;0.70;;
705;SDS011;21234;48.690;9.016;2024-02-26T09:12:02;0.73;;;0.63;;
705;SDS011;21234;48.690;9.016;2024-02-26T09:14:31;1.00;;;0.80;;
705;SDS011;21234;48.690;9.016;2024-02-26T09:16:58;1.03;;;0.90;;
705;SDS011;21234;48.690;9.016;2024-02-26T09:19:25;1.20;;;0.90;;
705;SDS011;21234;48.690;9.016;2024-02-26T09:21:52;2.20;;;0.80;;
705;SDS011;21234;48.690;9.016;2024-02-26T09:24:22;1.33;;;0.90;;
705;SDS011;21234;48.690;9.016;2024-02-26T09:26:49;1.30;;;1.00;;
705;SDS011;21234;48.690;9.016;2024-02-26T09:29:15;1.47;;;0.93;;
705;SDS011;21234;48.690;9.016;2024-02-26T09:31:43;3.30;;;0.70;;
705;SDS011;21234;48.690;9.016;2024-02-26T09:34:12;1.10;;;1.00;;
705;SDS011;21234;48.690;9.016;2024-02-26T09:36:39;1.10;;;1.00;;
705;SDS011;21234;48.690;9.016;2024-02-26T09:39:05;2.40;;;0.93;;
705;SDS011;21234;48.690;9.016;2024-02-26T09:41:36;2.30;;;0.80;;
705;SDS011;21234;48.690;9.016;2024-02-26T09:44:04;2.47;;;0.80;;
705;SDS011;21234;48.690;9.016;2024-02-26T09:46:31;1.30;;;0.80;;
705;SDS011;21234;48.690;9.016;2024-02-26T09:48:59;1.00;;;0.80;;
705;SDS011;21234;48.690;9.016;2024-02-26T09:51:26;1.43;;;1.13;;
705;SDS011;21234;48.690;9.016;2024-02-26T09:53:53;1.67;;;0.70;;
705;SDS011;21234;48.690;9.016;2024-02-26T09:56:22;0.70;;;0.60;;
705;SDS011;21234;48.690;9.016;2024-02-26T09:58:50;2.43;;;2.20;;
705;SDS011;21234;48.690;9.016;2024-02-26T10:01:19;3.10;;;1.80;;
705;SDS011;21234;48.690;9.016;2024-02-26T10:03:49;1.07;;;0.57;;
705;SDS011;21234;48.690;9.016;2024-02-26T10:06:23;2.03;;;1.43;;
705;SDS011;21234;48.690;9.016;2024-02-26T10:08:50;0.97;;;0.83;;
705;SDS011;21234;48.690;9.016;2024-02-26T10:11:19;2.33;;;0.90;;
705;SDS011;21234;48.690;9.016;2024-02-26T10:13:46;0.93;;;0.63;;
705;SDS011;21234;48.690;9.016;2024-02-26T10:16:13;0.70;;;0.70;;
705;SDS011;21234;48.690;9.016;2024-02-26T10:18:47;1.03;;;0.80;;
705;SDS011;21234;48.690;9.016;2024-02-26T10:21:15;5.40;;;1.00;;
705;SDS011;21234;48.690;9.016;2024-02-26T10:23:44;0.60;;;0.50;;
705;SDS011;21234;48.690;9.016;2024-02-26T10:26:12;0.70;;;0.43;;
705;SDS011;21234;48.690;9.016;2024-02-26T10:28:39;1.60;;;0.70;;
705;SDS011;21234;48.690;9.016;2024-02-26T10:31:07;1.23;;;0.60;;
705;SDS011;21234;48.690;9.016;2024-02-26T10:33:34;1.53;;;0.80;;
705;SDS011;21234;48.690;9.016;2024-02-26T10:36:02;0.70;;;0.50;;
705;SDS011;21234;48.690;9.016;2024-02-26T10:38:29;3.37;;;0.77;;
705;SDS011;21234;48.690;9.016;2024-02-26T10:40:57;1.40;;;0.90;;
705;SDS011;21234;48.690;9.016;2024-02-26T10:43:24;1.13;;;0.70;;
705;SDS011;21234;48.690;9.016;2024-02-26T10:45:51;0.57;;;0.43;;
705;SDS011;21234;48.690;9.016;2024-02-26T10:48:18;0.90;;;0.80;;
705;SDS011;21234;48.690;9.016;2024-02-26T10:50:45;1.43;;;0.83;;
705;SDS011;21234;48.690;9.016;2024-02-26T10:53:15;0.83;;;0.63;;
705;SDS011;21234;48.690;9.016;2024-02-26T10:55:45;3.13;;;0.80;;
705;SDS011;21234;48.690;9.016;2024-02-26T10:58:16;0.97;;;0.70;;
705;SDS011;21234;48.690;9.016;2024-02-26T11:00:43;2.10;;;1.10;;
705;SDS011;21234;48.690;9.016;2024-02-26T11:03:12;1.23;;;1.07;;
705;SDS011;21234;48.690;9.016;2024-02-26T11:05:42;1.50;;;1.03;;
705;SDS011;21234;48.690;9.016;2024-02-26T11:08:10;2.00;;;0.93;;
705;SDS011;21234;48.690;9.016;2024-02-26T11:10:38;2.70;;;0.97;;
705;SDS011;21234;48.690;9.016;2024-02-26T11:13:06;1.17;;;0.80;;
705;SDS011;21234;48.690;9.016;2024-02-26T11:15:40;3.00;;;1.57;;
705;SDS011;21234;48.690;9.016;2024-02-26T11:18:08;1.47;;;1.10;;
705;SDS011;21234;48.690;9.016;2024-02-26T11:20:35;2.60;;;1.20;;
705;SDS011;21234;48.690;9.016;2024-02-26T11:23:05;1.60;;;0.93;;
705;SDS011;21234;48.690;9.016;2024-02-26T11:25:33;2.30;;;0.93;;
705;SDS011;21234;48.690;9.016;2024-02-26T11:28:01;1.47;;;1.00;;
705;SDS011;21234;48.690;9.016;2024-02-26T11:30:31;0.90;;;0.77;;
705;SDS011;21234;48.690;9.016;2024-02-26T11:33:05;1.00;;;0.77;;
705;SDS011;21234;48.690;9.016;2024-02-26T11:35:34;2.20;;;0.90;;
705;SDS011;21234;48.690;9.016;2024-02-26T11:38:03;0.93;;;0.80;;
705;SDS011;21234;48.690;9.016;2024-02-26T11:40:31;1.00;;;0.73;;
705;SDS011;21234;48.690;9.016;2024-02-26T11:42:59;1.00;;;0.50;;
705;SDS011;21234;48.690;9.016;2024-02-26T11:45:47;1.27;;;0.83;;
705;SDS011;21234;48.690;9.016;2024-02-26T11:48:19;1.47;;;0.97;;
705;SDS011;21234;48.690;9.016;2024-02-26T11:50:47;1.27;;;1.00;;
705;SDS011;21234;48.690;9.016;2024-02-26T11:53:25;1.03;;;0.70;;
705;SDS011;21234;48.690;9.016;2024-02-26T11:58:48;1.93;;;1.20;;
705;SDS011;21234;48.690;9.016;2024-02-26T12:01:39;1.50;;;0.73;;
705;SDS011;21234;48.690;9.016;2024-02-26T12:04:15;1.13;;;1.00;;
705;SDS011;21234;48.690;9.016;2024-02-26T12:06:45;1.30;;;0.80;;
705;SDS011;21234;48.690;9.016;2024-02-26T12:09:16;1.23;;;0.93;;
705;SDS011;21234;48.690;9.016;2024-02-26T12:11:57;1.43;;;0.87;;
705;SDS011;21234;48.690;9.016;2024-02-26T12:14:25;1.33;;;0.70;;
705;SDS011;21234;48.690;9.016;2024-02-26T12:16:52;2.10;;;0.80;;
705;SDS011;21234;48.690;9.016;2024-02-26T12:19:22;2.50;;;0.80;;
705;SDS011;21234;48.690;9.016;2024-02-26T12:21:50;1.57;;;0.80;;
705;SDS011;21234;48.690;9.016;2024-02-26T12:24:18;0.93;;;0.77;;
705;SDS011;21234;48.690;9.016;2024-02-26T12:26:46;1.53;;;1.07;;
705;SDS011;21234;48.690;9.016;2024-02-26T12:29:12;3.00;;;1.30;;
705;SDS011;21234;48.690;9.016;2024-02-26T12:31:39;2.10;;;1.03;;
705;SDS011;21234;48.690;9.016;2024-02-26T12:34:07;1.27;;;1.00;;
705;SDS011;21234;48.690;9.016;2024-02-26T12:36:36;2.37;;;1.17;;
705;SDS011;21234;48.690;9.016;2024-02-26T12:39:03;2.20;;;0.70;;
705;SDS011;21234;48.690;9.016;2024-02-26T12:41:31;1.10;;;0.93;;
705;SDS011;21234;48.690;9.016;2024-02-26T12:43:59;1.10;;;0.50;;
705;SDS011;21234;48.690;9.016;2024-02-26T12:46:25;1.40;;;0.67;;
705;SDS011;21234;48.690;9.016;2024-02-26T12:48:54;1.67;;;1.00;;
705;SDS011;21234;48.690;9.016;2024-02-26T12:51:22;0.90;;;0.73;;
705;SDS011;21234;48.690;9.016;2024-02-26T12:53:51;0.80;;;0.60;;
705;SDS011;21234;48.690;9.016;2024-02-26T12:56:18;1.00;;;0.60;;
705;SDS011;21234;48.690;9.016;2024-02-26T12:58:45;0.90;;;0.60;;
705;SDS011;21234;48.690;9.016;2024-02-26T13:01:13;1.10;;;0.80;;
705;SDS011;21234;48.690;9.016;2024-02-26T13:03:42;0.70;;;0.50;;
705;SDS011;21234;48.690;9.016;2024-02-26T13:06:09;0.60;;;0.30;;
705;SDS011;21234;48.690;9.016;2024-02-26T13:08:36;1.20;;;0.50;;
705;SDS011;21234;48.690;9.016;2024-02-26T13:11:05;0.57;;;0.40;;
705;SDS011;21234;48.690;9.016;2024-02-26T13:13:31;1.37;;;0.43;;
705;SDS011;21234;48.690;9.016;2024-02-26T13:16:02;0.97;;;0.67;;
705;SDS011;21234;48.690;9.016;2024-02-26T13:18:29;1.00;;;0.43;;
705;SDS011;21234;48.690;9.016;2024-02-26T13:21:06;0.90;;;0.40;;
705;SDS011;21234;48.690;9.016;2024-02-26T13:23:34;0.73;;;0.40;;
705;SDS011;21234;48.690;9.016;2024-02-26T13:26:01;1.33;;;0.57;;
705;SDS011;21234;48.690;9.016;2024-02-26T13:28:29;1.00;;;0.43;;
705;SDS011;21234;48.690;9.016;2024-02-26T13:30:56;1.50;;;0.53;;
705;SDS011;21234;48.690;9.016;2024-02-26T13:33:25;0.63;;;0.50;;
705;SDS011;21234;48.690;9.016;2024-02-26T13:35:52;0.50;;;0.40;;
705;SDS011;21234;48.690;9.016;2024-02-26T13:38:19;1.43;;;0.80;;
705;SDS011;21234;48.690;9.016;2024-02-26T13:40:47;0.60;;;0.30;;
705;SDS011;21234;48.690;9.016;2024-02-26T13:43:14;0.80;;;0.80;;
705;SDS011;21234;48.690;9.016;2024-02-26T13:45:42;0.80;;;0.60;;
705;SDS011;21234;48.690;9.016;2024-02-26T13:48:09;2.40;;;1.10;;
705;SDS011;21234;48.690;9.016;2024-02-26T13:50:36;1.27;;;0.63;;
705;SDS011;21234;48.690;9.016;2024-02-26T13:53:03;0.80;;;0.50;;
705;SDS011;21234;48.690;9.016;2024-02-26T13:55:30;0.70;;;0.50;;
705;SDS011;21234;48.690;9.016;2024-02-26T13:57:57;0.70;;;0.40;;
705;SDS011;21234;48.690;9.016;2024-02-26T14:00:26;2.17;;;0.60;;
705;SDS011;21234;48.690;9.016;2024-02-26T14:02:54;0.50;;;0.37;;
705;SDS011;21234;48.690;9.016;2024-02-26T14:05:21;0.50;;;0.30;;
705;SDS011;21234;48.690;9.016;2024-02-26T14:07:47;2.30;;;0.60;;
705;SDS011;21234;48.690;9.016;2024-02-26T14:10:14;0.90;;;0.63;;
705;SDS011;21234;48.690;9.016;2024-02-26T14:12:41;1.43;;;0.50;;
705;SDS011;21234;48.690;9.016;2024-02-26T14:15:08;1.23;;;0.70;;
705;SDS011;21234;48.690;9.016;2024-02-26T14:17:36;1.17;;;0.50;;
705;SDS011;21234;48.690;9.016;2024-02-26T14:20:05;0.50;;;0.23;;
705;SDS011;21234;48.690;9.016;2024-02-26T14:22:32;4.80;;;0.70;;
705;SDS011;21234;48.690;9.016;2024-02-26T14:24:59;0.50;;;0.40;;
705;SDS011;21234;48.690;9.016;2024-02-26T14:27:26;0.60;;;0.40;;
705;SDS011;21234;48.690;9.016;2024-02-26T14:29:52;0.77;;;0.77;;
705;SDS011;21234;48.690;9.016;2024-02-26T14:32:20;0.87;;;0.63;;
705;SDS011;21234;48.690;9.016;2024-02-26T14:34:46;0.60;;;0.50;;
705;SDS011;21234;48.690;9.016;2024-02-26T14:37:14;0.67;;;0.60;;
705;SDS011;21234;48.690;9.016;2024-02-26T14:39:41;3.00;;;0.70;;
705;SDS011;21234;48.690;9.016;2024-02-26T14:42:08;1.00;;;0.50;;
705;SDS011;21234;48.690;9.016;2024-02-26T14:44:34;1.63;;;0.70;;
705;SDS011;21234;48.690;9.016;2024-02-26T14:47:01;1.37;;;0.60;;
705;SDS011;21234;48.690;9.016;2024-02-26T14:49:28;0.63;;;0.60;;
705;SDS011;21234;48.690;9.016;2024-02-26T14:51:56;0.70;;;0.40;;
705;SDS011;21234;48.690;9.016;2024-02-26T14:54:24;0.77;;;0.50;;
705;SDS011;21234;48.690;9.016;2024-02-26T14:56:51;0.50;;;0.50;;
705;SDS011;21234;48.690;9.016;2024-02-26T14:59:17;1.43;;;0.70;;
705;SDS011;21234;48.690;9.016;2024-02-26T15:01:44;2.60;;;1.00;;
705;SDS011;21234;48.690;9.016;2024-02-26T15:04:11;1.50;;;0.70;;
705;SDS011;21234;48.690;9.016;2024-02-26T15:06:38;1.10;;;0.80;;
705;SDS011;21234;48.690;9.016;2024-02-26T15:09:04;0.87;;;0.63;;
705;SDS011;21234;48.690;9.016;2024-02-26T15:11:33;2.00;;;0.60;;
705;SDS011;21234;48.690;9.016;2024-02-26T15:13:59;2.70;;;0.90;;
705;SDS011;21234;48.690;9.016;2024-02-26T15:16:26;1.07;;;0.97;;
705;SDS011;21234;48.690;9.016;2024-02-26T15:18:53;1.00;;;0.90;;